Time;durP1;ratioP1;P1;durP2;ratioP2;P2;SDS_P1;SDS_P2;PMS_P1;PMS_P2;Temp;Humidity;BMP_temperature;BMP_pressure;BME280_temperature;BME280_humidity;BME280_pressure;Samples;Min_cycle;Max_cycle;Signal;HPM_P1;HPM_P2
2022/05/07 00:02:06;;;;;;;25.38;22.70;;;;;;;;;;5008060;28;20085;-80
2022/05/07 00:04:33;;;;;;;25.48;21.65;;;;;;;;;;5000431;28;20045;-80
2022/05/07 00:06:59;;;;;;;25.63;23.05;;;;;;;;;;5009585;28;20452;-79
2022/05/07 00:09:25;;;;;;;23.40;21.02;;;;;;;;;;5008009;28;20049;-79
2022/05/07 00:11:51;;;;;;;23.38;20.50;;;;;;;;;;5009220;28;20486;-79
2022/05/07 00:14:17;;;;;;;24.77;22.15;;;;;;;;;;5008010;28;20517;-79
2022/05/07 00:19:28;;;;;;;23.80;21.25;;;;;;;;;;5039026;28;20057;-80
2022/05/07 00:21:54;;;;;;;23.98;21.50;;;;;;;;;;5010740;28;20034;-79
2022/05/07 00:24:20;;;;;;;25.42;22.70;;;;;;;;;;5006584;28;20141;-79
2022/05/07 00:26:46;;;;;;;26.60;22.05;;;;;;;;;;5011455;28;20156;-80
2022/05/07 00:29:13;;;;;;;24.80;22.20;;;;;;;;;;5007431;28;20463;-80
2022/05/07 00:31:39;;;;;;;24.33;21.83;;;;;;;;;;5009623;28;20407;-79
2022/05/07 00:34:05;;;;;;;23.98;21.52;;;;;;;;;;5010093;28;20144;-80
2022/05/07 00:36:32;;;;;;;24.13;21.67;;;;;;;;;;5010276;28;20050;-80
2022/05/07 00:38:58;;;;;;;25.15;22.45;;;;;;;;;;5009412;28;20498;-79
2022/05/07 00:41:27;;;;;;;25.90;23.00;;;;;;;;;;5007841;28;20125;-78
2022/05/07 00:43:53;;;;;;;25.15;22.55;;;;;;;;;;5012708;28;20105;-80
2022/05/07 00:46:28;;;;;;;24.25;21.67;;;;;;;;;;5007696;28;20137;-80
2022/05/07 00:48:54;;;;;;;24.15;21.65;;;;;;;;;;5006070;28;20053;-80
2022/05/07 00:51:36;;;;;;;23.73;21.33;;;;;;;;;;5007602;28;20047;-80
2022/05/07 00:54:03;;;;;;;24.55;21.95;;;;;;;;;;5012645;28;20423;-79
2022/05/07 00:56:29;;;;;;;24.73;22.33;;;;;;;;;;5006678;28;20050;-80
2022/05/07 00:58:56;;;;;;;23.90;21.50;;;;;;;;;;5009672;28;20501;-80
2022/05/07 01:01:22;;;;;;;25.50;22.92;;;;;;;;;;5008068;28;20121;-80
2022/05/07 01:03:52;;;;;;;25.13;22.42;;;;;;;;;;5015376;28;20124;-79
2022/05/07 01:06:18;;;;;;;27.70;24.02;;;;;;;;;;5013600;28;20045;-79
2022/05/07 01:08:46;;;;;;;25.30;22.42;;;;;;;;;;5010924;28;20124;-80
2022/05/07 01:11:19;;;;;;;24.10;21.70;;;;;;;;;;5017429;28;20062;-80
2022/05/07 01:13:47;;;;;;;24.15;21.48;;;;;;;;;;5009120;28;20055;-79
2022/05/07 01:16:13;;;;;;;24.15;21.73;;;;;;;;;;5002918;28;20058;-80
2022/05/07 01:18:40;;;;;;;24.80;21.88;;;;;;;;;;5007322;28;20045;-80
2022/05/07 01:21:13;;;;;;;25.55;22.95;;;;;;;;;;5009869;28;20128;-79
2022/05/07 01:23:43;;;;;;;25.75;23.08;;;;;;;;;;5009974;28;20045;-79
2022/05/07 01:26:09;;;;;;;25.38;22.88;;;;;;;;;;5009337;28;20081;-79
2022/05/07 01:28:35;;;;;;;24.73;22.30;;;;;;;;;;5008030;28;20042;-80
2022/05/07 01:31:02;;;;;;;24.65;22.20;;;;;;;;;;5010712;28;20049;-80
2022/05/07 01:33:28;;;;;;;24.63;21.98;;;;;;;;;;5001670;28;20120;-79
2022/05/07 01:35:54;;;;;;;25.73;23.10;;;;;;;;;;5011508;28;20148;-80
2022/05/07 01:38:23;;;;;;;25.08;22.58;;;;;;;;;;5003637;28;20464;-80
2022/05/07 01:40:49;;;;;;;24.30;21.85;;;;;;;;;;5003373;28;20065;-79
2022/05/07 01:43:15;;;;;;;25.48;22.33;;;;;;;;;;5006297;28;20492;-80
2022/05/07 01:45:41;;;;;;;24.80;22.20;;;;;;;;;;5008184;28;20082;-80
2022/05/07 01:48:10;;;;;;;25.40;22.83;;;;;;;;;;5000497;28;20077;-80
2022/05/07 01:50:37;;;;;;;25.08;22.58;;;;;;;;;;5008441;28;20197;-80
2022/05/07 01:53:04;;;;;;;25.20;22.55;;;;;;;;;;5011302;28;20049;-80
2022/05/07 01:55:33;;;;;;;26.17;23.38;;;;;;;;;;5014297;28;20080;-79
2022/05/07 01:57:59;;;;;;;25.17;22.58;;;;;;;;;;5016795;28;20386;-80
2022/05/07 02:00:25;;;;;;;25.83;22.83;;;;;;;;;;5005284;28;20053;-79
2022/05/07 02:02:51;;;;;;;26.75;24.05;;;;;;;;;;5012494;28;20053;-80
2022/05/07 02:05:17;;;;;;;26.73;23.98;;;;;;;;;;5007777;28;20103;-79
2022/05/07 02:07:44;;;;;;;25.67;22.75;;;;;;;;;;5011887;28;20041;-79
2022/05/07 02:10:11;;;;;;;26.33;23.55;;;;;;;;;;5012136;28;20071;-80
2022/05/07 02:12:37;;;;;;;26.73;23.98;;;;;;;;;;5011121;28;20038;-79
2022/05/07 02:15:03;;;;;;;25.75;23.20;;;;;;;;;;5016812;28;20096;-80
2022/05/07 02:17:29;;;;;;;26.95;24.13;;;;;;;;;;5011969;28;20050;-80
2022/05/07 02:19:55;;;;;;;25.77;23.27;;;;;;;;;;5009889;28;20104;-80
2022/05/07 02:22:21;;;;;;;26.48;23.85;;;;;;;;;;5010534;28;20046;-80
2022/05/07 02:24:47;;;;;;;27.15;24.25;;;;;;;;;;5009657;28;20045;-79
2022/05/07 02:27:13;;;;;;;27.05;24.08;;;;;;;;;;5040794;28;20049;-80
2022/05/07 02:29:39;;;;;;;24.98;22.58;;;;;;;;;;5009009;28;20055;-79
2022/05/07 02:32:06;;;;;;;26.58;23.77;;;;;;;;;;5011378;28;20418;-80
2022/05/07 02:34:36;;;;;;;26.17;23.40;;;;;;;;;;5009402;28;20046;-79
2022/05/07 02:37:05;;;;;;;27.25;24.52;;;;;;;;;;5011878;28;20053;-80
2022/05/07 02:39:32;;;;;;;27.25;24.45;;;;;;;;;;5009547;28;20043;-79
2022/05/07 02:44:43;;;;;;;26.92;24.08;;;;;;;;;;5014519;28;20092;-80
2022/05/07 02:47:09;;;;;;;27.27;24.42;;;;;;;;;;5013173;28;20086;-80
2022/05/07 02:49:35;;;;;;;26.52;23.73;;;;;;;;;;5007443;28;20128;-80
2022/05/07 02:52:01;;;;;;;26.23;23.52;;;;;;;;;;5012465;28;20061;-80
2022/05/07 02:54:27;;;;;;;26.42;23.50;;;;;;;;;;5008258;28;20565;-80
2022/05/07 02:56:56;;;;;;;27.00;24.40;;;;;;;;;;5009361;28;20128;-80
2022/05/07 02:59:23;;;;;;;26.52;23.83;;;;;;;;;;5008439;28;22454;-80
2022/05/07 03:01:49;;;;;;;27.95;24.85;;;;;;;;;;5011621;28;20115;-80
2022/05/07 03:04:15;;;;;;;28.25;25.35;;;;;;;;;;5011514;28;20770;-79
2022/05/07 03:06:41;;;;;;;27.77;25.08;;;;;;;;;;5008366;28;20611;-79
2022/05/07 03:09:07;;;;;;;28.25;25.27;;;;;;;;;;5009887;28;20045;-80
2022/05/07 03:11:34;;;;;;;29.02;25.92;;;;;;;;;;5009727;28;20053;-79
2022/05/07 03:14:04;;;;;;;28.33;25.33;;;;;;;;;;5010657;28;20046;-80
2022/05/07 03:16:31;;;;;;;27.08;24.40;;;;;;;;;;5015426;28;20405;-79
2022/05/07 03:18:57;;;;;;;27.80;24.80;;;;;;;;;;5010721;28;20104;-79
2022/05/07 03:21:23;;;;;;;27.08;24.27;;;;;;;;;;5008949;28;20045;-79
2022/05/07 03:23:49;;;;;;;28.42;25.60;;;;;;;;;;5009119;28;20661;-79
2022/05/07 03:26:17;;;;;;;30.42;25.27;;;;;;;;;;5011018;28;20045;-79
2022/05/07 03:28:43;;;;;;;28.88;25.85;;;;;;;;;;5007923;28;20080;-80
2022/05/07 03:31:09;;;;;;;26.98;24.33;;;;;;;;;;5008547;28;20070;-79
2022/05/07 03:33:35;;;;;;;29.30;26.27;;;;;;;;;;5007081;28;20053;-80
2022/05/07 03:36:01;;;;;;;28.40;25.58;;;;;;;;;;5006265;28;20056;-79
2022/05/07 03:38:30;;;;;;;29.35;26.10;;;;;;;;;;5006677;28;20160;-80
2022/05/07 03:40:56;;;;;;;29.25;26.30;;;;;;;;;;5012658;28;20042;-79
2022/05/07 03:43:23;;;;;;;29.83;26.83;;;;;;;;;;5002868;28;20784;-79
2022/05/07 03:45:49;;;;;;;30.38;27.10;;;;;;;;;;5013073;28;20050;-79
2022/05/07 03:48:15;;;;;;;29.48;26.35;;;;;;;;;;5010609;28;20112;-80
2022/05/07 03:50:41;;;;;;;30.88;27.55;;;;;;;;;;5002168;28;20041;-79
2022/05/07 03:55:52;;;;;;;31.88;28.58;;;;;;;;;;5039285;28;20053;-79
2022/05/07 03:58:18;;;;;;;29.27;26.38;;;;;;;;;;5006422;28;20091;-80
2022/05/07 04:00:44;;;;;;;29.40;26.50;;;;;;;;;;5003741;28;20129;-79
2022/05/07 04:03:13;;;;;;;30.10;27.00;;;;;;;;;;5020312;28;20057;-80
2022/05/07 04:05:39;;;;;;;34.08;28.33;;;;;;;;;;5005935;28;20380;-80
2022/05/07 04:08:05;;;;;;;32.58;29.13;;;;;;;;;;5009979;28;20061;-80
2022/05/07 04:10:32;;;;;;;30.77;27.55;;;;;;;;;;5011737;28;20065;-80
2022/05/07 04:12:58;;;;;;;31.13;27.88;;;;;;;;;;5008597;28;20046;-80
2022/05/07 04:15:24;;;;;;;33.30;29.13;;;;;;;;;;5010678;28;20069;-80
2022/05/07 04:17:50;;;;;;;33.38;29.75;;;;;;;;;;5039562;28;20041;-80
2022/05/07 04:20:17;;;;;;;31.13;27.83;;;;;;;;;;5011557;28;20545;-80
2022/05/07 04:22:43;;;;;;;33.42;29.15;;;;;;;;;;5009289;28;20674;-80
2022/05/07 04:25:10;;;;;;;31.48;28.15;;;;;;;;;;5007854;28;20136;-80
2022/05/07 04:27:37;;;;;;;35.30;29.58;;;;;;;;;;5008562;28;20557;-80
2022/05/07 04:30:03;;;;;;;31.67;28.30;;;;;;;;;;5013543;28;20041;-80
2022/05/07 04:32:29;;;;;;;33.22;29.85;;;;;;;;;;5007005;28;20068;-80
2022/05/07 04:34:56;;;;;;;32.95;29.15;;;;;;;;;;5009236;28;20050;-80
2022/05/07 04:37:25;;;;;;;32.88;29.30;;;;;;;;;;5008175;28;20061;-80
2022/05/07 04:39:52;;;;;;;35.03;31.27;;;;;;;;;;5011420;28;20050;-79
2022/05/07 04:42:18;;;;;;;32.85;29.35;;;;;;;;;;5008425;28;20094;-80
2022/05/07 04:44:44;;;;;;;33.20;29.90;;;;;;;;;;5007503;28;20428;-81
2022/05/07 04:47:10;;;;;;;31.27;28.25;;;;;;;;;;5004700;28;20172;-80
2022/05/07 04:49:39;;;;;;;34.72;31.02;;;;;;;;;;5008948;28;20479;-80
2022/05/07 04:52:05;;;;;;;35.55;31.83;;;;;;;;;;5012770;28;20042;-80
2022/05/07 04:54:32;;;;;;;35.17;31.33;;;;;;;;;;5009922;28;20085;-80
2022/05/07 04:56:58;;;;;;;35.80;32.03;;;;;;;;;;5009883;28;20362;-80
2022/05/07 04:59:26;;;;;;;35.72;32.15;;;;;;;;;;5002457;28;20056;-80
2022/05/07 05:01:52;;;;;;;34.20;30.58;;;;;;;;;;5007148;28;20042;-80
2022/05/07 05:04:18;;;;;;;36.45;32.75;;;;;;;;;;5010188;28;20037;-80
2022/05/07 05:06:44;;;;;;;34.70;31.30;;;;;;;;;;5007793;28;20493;-79
2022/05/07 05:09:12;;;;;;;35.72;32.13;;;;;;;;;;5007003;28;20053;-80
2022/05/07 05:11:39;;;;;;;34.90;31.30;;;;;;;;;;5010173;28;20408;-79
2022/05/07 05:16:53;;;;;;;34.30;30.95;;;;;;;;;;5007368;28;20042;-80
2022/05/07 05:19:19;;;;;;;30.33;27.27;;;;;;;;;;5006760;28;20140;-80
2022/05/07 05:21:46;;;;;;;31.35;28.08;;;;;;;;;;5008189;28;20050;-80
2022/05/07 05:24:12;;;;;;;31.23;27.92;;;;;;;;;;5006263;28;20042;-79
2022/05/07 05:26:38;;;;;;;32.60;27.05;;;;;;;;;;5008477;28;20056;-79
2022/05/07 05:29:05;;;;;;;25.30;22.80;;;;;;;;;;5008381;28;20855;-79
2022/05/07 05:31:31;;;;;;;27.08;23.77;;;;;;;;;;5010608;28;20045;-80
2022/05/07 05:34:00;;;;;;;22.50;19.85;;;;;;;;;;5006259;28;20060;-80
2022/05/07 05:36:30;;;;;;;25.63;20.70;;;;;;;;;;5013629;28;20065;-81
2022/05/07 05:38:56;;;;;;;24.15;21.75;;;;;;;;;;5016276;28;20058;-78
2022/05/07 05:41:22;;;;;;;23.63;21.17;;;;;;;;;;5011272;28;20037;-79
2022/05/07 05:43:48;;;;;;;24.30;22.00;;;;;;;;;;5015820;28;20049;-79
2022/05/07 05:46:14;;;;;;;24.27;21.88;;;;;;;;;;5013920;28;20053;-80
2022/05/07 05:48:47;;;;;;;24.95;22.42;;;;;;;;;;5014555;28;20038;-80
2022/05/07 05:51:13;;;;;;;26.15;23.42;;;;;;;;;;5002239;28;20050;-80
2022/05/07 05:53:44;;;;;;;26.35;23.40;;;;;;;;;;5007045;28;20045;-78
2022/05/07 05:56:10;;;;;;;26.90;24.02;;;;;;;;;;5009027;28;20081;-79
2022/05/07 05:58:36;;;;;;;26.58;23.85;;;;;;;;;;5003199;28;20073;-80
2022/05/07 06:01:03;;;;;;;28.52;25.33;;;;;;;;;;5002524;28;20065;-79
2022/05/07 06:03:30;;;;;;;27.92;24.90;;;;;;;;;;5004976;28;20415;-79
2022/05/07 06:05:56;;;;;;;29.40;26.30;;;;;;;;;;5002144;28;20065;-79
2022/05/07 06:08:22;;;;;;;28.45;25.45;;;;;;;;;;5005685;28;20042;-80
2022/05/07 06:10:52;;;;;;;29.67;26.67;;;;;;;;;;5004926;28;20352;-79
2022/05/07 06:13:18;;;;;;;30.42;26.48;;;;;;;;;;5005044;28;20045;-79
2022/05/07 06:15:45;;;;;;;30.15;26.35;;;;;;;;;;5004310;28;20492;-79
2022/05/07 06:18:11;;;;;;;28.13;25.23;;;;;;;;;;5009403;28;20053;-80
2022/05/07 06:20:37;;;;;;;29.08;25.98;;;;;;;;;;5009621;28;20053;-80
2022/05/07 06:23:04;;;;;;;30.17;26.92;;;;;;;;;;5007730;28;20049;-79
2022/05/07 06:28:14;;;;;;;29.17;26.27;;;;;;;;;;5031745;28;20042;-79
2022/05/07 06:30:43;;;;;;;30.50;27.33;;;;;;;;;;5007172;28;20179;-79
2022/05/07 06:33:09;;;;;;;30.15;27.15;;;;;;;;;;5005161;28;20508;-79
2022/05/07 06:35:35;;;;;;;30.88;27.67;;;;;;;;;;5008819;28;20042;-79
2022/05/07 06:38:04;;;;;;;31.15;28.00;;;;;;;;;;5008687;28;20048;-79
2022/05/07 06:40:30;;;;;;;30.67;27.67;;;;;;;;;;5009150;28;20488;-79
2022/05/07 06:42:56;;;;;;;30.65;27.55;;;;;;;;;;5008584;28;20124;-79
2022/05/07 06:45:22;;;;;;;31.42;28.17;;;;;;;;;;5006571;28;20042;-78
2022/05/07 06:47:48;;;;;;;32.28;29.08;;;;;;;;;;5003973;28;20526;-79
2022/05/07 06:50:14;;;;;;;33.55;30.10;;;;;;;;;;5008667;28;20080;-78
2022/05/07 06:52:44;;;;;;;33.03;29.52;;;;;;;;;;5011156;28;20076;-79
2022/05/07 06:55:17;;;;;;;33.72;30.23;;;;;;;;;;5012612;28;20089;-79
2022/05/07 06:57:46;;;;;;;33.78;30.48;;;;;;;;;;5006570;28;20082;-79
2022/05/07 07:00:13;;;;;;;35.05;31.50;;;;;;;;;;5008074;28;20133;-79
2022/05/07 07:02:40;;;;;;;35.30;31.70;;;;;;;;;;5009759;28;20450;-79
2022/05/07 07:05:06;;;;;;;33.53;30.33;;;;;;;;;;5013112;28;20041;-79
2022/05/07 07:07:33;;;;;;;33.33;30.00;;;;;;;;;;5013425;28;20204;-79
2022/05/07 07:10:02;;;;;;;33.85;30.45;;;;;;;;;;5011279;28;20054;-79
2022/05/07 07:12:30;;;;;;;33.45;30.10;;;;;;;;;;5009749;28;20474;-79
2022/05/07 07:14:57;;;;;;;33.33;30.02;;;;;;;;;;5006790;28;20382;-79
2022/05/07 07:17:25;;;;;;;34.28;30.88;;;;;;;;;;5007323;28;20046;-79
2022/05/07 07:19:51;;;;;;;32.15;29.05;;;;;;;;;;5009037;28;20054;-79
2022/05/07 07:22:17;;;;;;;32.28;29.08;;;;;;;;;;5008253;28;20045;-79
2022/05/07 07:24:43;;;;;;;32.20;29.10;;;;;;;;;;5008283;28;20042;-78
2022/05/07 07:27:09;;;;;;;31.50;28.50;;;;;;;;;;5010045;28;20057;-79
2022/05/07 07:29:35;;;;;;;29.50;26.70;;;;;;;;;;5010606;28;20120;-79
2022/05/07 07:32:01;;;;;;;29.48;26.52;;;;;;;;;;5012304;28;20049;-79
2022/05/07 07:34:31;;;;;;;29.33;26.35;;;;;;;;;;5006961;28;20046;-79
2022/05/07 07:36:57;;;;;;;28.90;26.00;;;;;;;;;;5003775;28;20038;-79
2022/05/07 07:39:23;;;;;;;29.65;26.55;;;;;;;;;;5008744;28;20100;-78
2022/05/07 07:41:49;;;;;;;29.35;26.27;;;;;;;;;;5016701;28;20045;-79
2022/05/07 07:44:15;;;;;;;29.38;26.35;;;;;;;;;;5018845;28;20529;-78
2022/05/07 07:49:32;;;;;;;28.55;25.63;;;;;;;;;;5015393;28;20053;-78
2022/05/07 07:51:58;;;;;;;24.40;21.08;;;;;;;;;;5031461;28;20053;-79
2022/05/07 07:54:24;;;;;;;19.98;17.80;;;;;;;;;;5014999;28;20093;-79
2022/05/07 07:56:53;;;;;;;20.63;18.27;;;;;;;;;;4995279;28;20050;-79
2022/05/07 07:59:23;;;;;;;21.70;19.48;;;;;;;;;;5008786;28;20049;-78
2022/05/07 08:01:49;;;;;;;23.80;20.25;;;;;;;;;;5014452;28;20063;-79
2022/05/07 08:04:21;;;;;;;21.83;19.52;;;;;;;;;;5027497;28;20091;-79
2022/05/07 08:11:40;;;;;;;24.03;21.40;;;;;;;;;;5021890;28;20045;-79
2022/05/07 08:12:17;;;;;;;25.77;23.00;;;;;;;;;;5008324;28;20060;-79
2022/05/07 08:14:43;;;;;;;27.40;24.70;;;;;;;;;;5006057;28;20053;-79
2022/05/07 08:17:09;;;;;;;27.83;24.92;;;;;;;;;;5004743;28;20678;-79
2022/05/07 08:19:38;;;;;;;26.15;23.38;;;;;;;;;;4997314;28;20128;-79
2022/05/07 08:22:04;;;;;;;26.20;23.50;;;;;;;;;;5029399;28;20049;-79
2022/05/07 08:24:30;;;;;;;23.10;20.23;;;;;;;;;;5026483;28;20055;-79
2022/05/07 08:26:58;;;;;;;18.83;16.83;;;;;;;;;;4992903;28;20057;-80
2022/05/07 08:29:24;;;;;;;19.55;17.55;;;;;;;;;;5011008;28;20377;-80
2022/05/07 08:31:53;;;;;;;19.38;16.95;;;;;;;;;;5016229;28;20046;-80
2022/05/07 08:34:19;;;;;;;19.33;16.55;;;;;;;;;;5024790;28;20052;-79
2022/05/07 08:36:45;;;;;;;21.48;17.80;;;;;;;;;;4994720;28;20049;-79
2022/05/07 08:39:11;;;;;;;20.40;16.73;;;;;;;;;;5005400;28;20049;-80
2022/05/07 08:41:37;;;;;;;18.95;16.45;;;;;;;;;;5022875;28;20374;-79
2022/05/07 08:44:06;;;;;;;17.90;15.65;;;;;;;;;;4999312;28;20478;-80
2022/05/07 08:46:33;;;;;;;21.42;16.40;;;;;;;;;;5011961;28;20037;-83
2022/05/07 08:48:59;;;;;;;18.88;16.92;;;;;;;;;;5015250;28;20042;-80
2022/05/07 08:51:25;;;;;;;20.15;16.92;;;;;;;;;;5015604;28;20046;-80
2022/05/07 08:53:53;;;;;;;19.83;17.73;;;;;;;;;;5004371;28;20485;-79
2022/05/07 08:56:19;;;;;;;19.42;17.42;;;;;;;;;;5002685;28;20046;-81
2022/05/07 08:58:49;;;;;;;20.52;18.42;;;;;;;;;;5005890;28;20037;-78
2022/05/07 09:01:15;;;;;;;19.13;17.05;;;;;;;;;;5000030;28;20042;-81
2022/05/07 09:03:43;;;;;;;19.63;17.58;;;;;;;;;;5019024;28;20063;-80
2022/05/07 09:06:35;;;;;;;23.88;18.50;;;;;;;;;;5019399;28;20400;-81
2022/05/07 09:09:04;;;;;;;24.00;21.38;;;;;;;;;;5027111;28;20064;-80
2022/05/07 09:11:38;;;;;;;23.67;20.90;;;;;;;;;;5017809;28;20045;-80
2022/05/07 09:14:05;;;;;;;25.55;21.88;;;;;;;;;;5006832;28;20053;-80
2022/05/07 09:16:41;;;;;;;23.85;21.23;;;;;;;;;;5014117;28;20046;-80
2022/05/07 09:19:25;;;;;;;23.52;20.92;;;;;;;;;;5007538;28;20133;-80
2022/05/07 09:21:54;;;;;;;22.60;20.08;;;;;;;;;;5007299;28;20107;-80
2022/05/07 09:24:21;;;;;;;23.30;20.20;;;;;;;;;;5009501;28;20092;-80
2022/05/07 09:26:48;;;;;;;21.70;19.50;;;;;;;;;;5007917;28;20037;-79
2022/05/07 09:29:15;;;;;;;20.70;18.25;;;;;;;;;;5008494;28;20045;-80
2022/05/07 09:31:43;;;;;;;21.33;18.27;;;;;;;;;;5012151;28;20103;-80
2022/05/07 09:36:57;;;;;;;19.02;16.52;;;;;;;;;;5010145;28;20591;-79
2022/05/07 09:39:30;;;;;;;18.67;16.33;;;;;;;;;;5007554;28;20152;-79
2022/05/07 09:41:58;;;;;;;17.52;15.65;;;;;;;;;;5010468;28;20046;-79
2022/05/07 09:44:28;;;;;;;15.57;13.18;;;;;;;;;;5009592;28;20149;-80
2022/05/07 09:46:55;;;;;;;16.40;13.05;;;;;;;;;;5009102;28;20049;-78
2022/05/07 09:49:22;;;;;;;11.98;10.38;;;;;;;;;;4999794;28;20046;-78
2022/05/07 09:51:51;;;;;;;15.18;13.55;;;;;;;;;;4996925;28;20129;-78
2022/05/07 09:59:51;;;;;;;16.67;12.25;;;;;;;;;;5041564;28;20042;-77
2022/05/07 10:02:17;;;;;;;14.07;12.20;;;;;;;;;;5024683;28;20061;-77
2022/05/07 10:05:02;;;;;;;15.65;13.38;;;;;;;;;;5027049;28;20061;-77
2022/05/07 10:07:33;;;;;;;15.50;13.02;;;;;;;;;;4991307;28;20049;-77
2022/05/07 10:10:05;;;;;;;15.05;13.10;;;;;;;;;;5018104;28;20046;-77
2022/05/07 10:12:31;;;;;;;15.27;13.67;;;;;;;;;;4999892;28;20104;-77
2022/05/07 10:15:12;;;;;;;13.65;12.18;;;;;;;;;;5020029;28;20436;-77
2022/05/07 10:17:43;;;;;;;15.60;12.80;;;;;;;;;;5017212;28;20058;-78
2022/05/07 10:20:12;;;;;;;14.27;12.23;;;;;;;;;;5017395;28;20086;-78
2022/05/07 10:22:38;;;;;;;14.63;12.35;;;;;;;;;;5008629;28;20074;-77
2022/05/07 10:25:05;;;;;;;14.85;11.95;;;;;;;;;;5014701;28;20119;-78
2022/05/07 10:27:32;;;;;;;16.20;13.40;;;;;;;;;;5016905;28;20046;-77
2022/05/07 10:30:09;;;;;;;15.30;11.77;;;;;;;;;;5011663;28;20068;-77
2022/05/07 10:32:55;;;;;;;14.05;11.77;;;;;;;;;;5012165;28;20050;-77
2022/05/07 10:35:41;;;;;;;12.75;11.15;;;;;;;;;;5008821;28;20054;-78
2022/05/07 10:38:13;;;;;;;12.93;11.52;;;;;;;;;;5008779;28;20053;-78
2022/05/07 10:40:49;;;;;;;15.70;13.15;;;;;;;;;;5011822;28;20245;-77
2022/05/07 10:43:24;;;;;;;16.35;14.55;;;;;;;;;;5011870;28;20049;-77
2022/05/07 10:45:54;;;;;;;19.55;15.65;;;;;;;;;;5007779;28;20050;-77
2022/05/07 10:48:20;;;;;;;16.65;14.23;;;;;;;;;;5005133;28;20402;-78
2022/05/07 10:50:50;;;;;;;18.17;14.50;;;;;;;;;;5009626;28;20046;-77
2022/05/07 10:53:16;;;;;;;17.40;13.73;;;;;;;;;;5041340;28;20050;-77
2022/05/07 10:55:42;;;;;;;17.42;14.93;;;;;;;;;;5002925;28;20569;-77
2022/05/07 10:58:08;;;;;;;16.65;14.20;;;;;;;;;;5011806;28;20042;-76
2022/05/07 11:00:35;;;;;;;16.40;14.60;;;;;;;;;;5009650;28;20069;-78
2022/05/07 11:03:01;;;;;;;16.00;14.00;;;;;;;;;;5010989;28;20046;-77
2022/05/07 11:05:31;;;;;;;15.95;14.25;;;;;;;;;;5008047;28;20133;-77
2022/05/07 11:08:02;;;;;;;15.00;13.35;;;;;;;;;;5008121;28;20532;-77
2022/05/07 11:10:28;;;;;;;15.48;13.00;;;;;;;;;;5009981;28;20053;-77
2022/05/07 11:13:04;;;;;;;15.00;11.93;;;;;;;;;;5011015;28;20046;-77
2022/05/07 11:15:30;;;;;;;14.70;12.43;;;;;;;;;;5004856;28;20041;-77
2022/05/07 11:17:56;;;;;;;14.52;11.50;;;;;;;;;;5012934;28;20104;-77
2022/05/07 11:20:35;;;;;;;11.68;10.48;;;;;;;;;;5007942;28;20067;-77
2022/05/07 11:23:03;;;;;;;10.38;9.20;;;;;;;;;;5011158;28;20053;-77
2022/05/07 11:25:30;;;;;;;10.00;8.40;;;;;;;;;;5011480;28;20406;-77
2022/05/07 11:27:57;;;;;;;10.15;8.93;;;;;;;;;;5011640;28;20042;-77
2022/05/07 11:30:24;;;;;;;11.20;9.40;;;;;;;;;;5009043;28;20086;-77
2022/05/07 11:32:50;;;;;;;13.02;9.82;;;;;;;;;;5010204;28;20081;-77
2022/05/07 11:35:24;;;;;;;10.07;9.07;;;;;;;;;;5012247;28;20041;-77
2022/05/07 11:37:50;;;;;;;11.60;10.40;;;;;;;;;;5001106;28;20643;-77
2022/05/07 11:40:27;;;;;;;12.27;10.25;;;;;;;;;;5038217;28;20073;-76
2022/05/07 11:45:25;;;;;;;11.95;10.20;;;;;;;;;;5003523;28;20053;-77
2022/05/07 11:45:42;;;;;;;12.20;10.80;;;;;;;;;;5009278;28;20054;-77
2022/05/07 11:48:08;;;;;;;12.85;10.65;;;;;;;;;;5002045;28;20050;-78
2022/05/07 11:50:39;;;;;;;11.43;10.25;;;;;;;;;;5007925;28;20057;-77
2022/05/07 11:53:16;;;;;;;13.88;10.98;;;;;;;;;;5007086;28;20061;-77
2022/05/07 11:55:43;;;;;;;10.75;9.48;;;;;;;;;;5006476;28;20042;-77
2022/05/07 11:58:18;;;;;;;10.57;9.48;;;;;;;;;;5004407;28;20184;-77
2022/05/07 12:00:55;;;;;;;6.93;5.90;;;;;;;;;;5000188;28;20537;-78
2022/05/07 12:03:25;;;;;;;9.68;7.25;;;;;;;;;;5036383;28;20053;-78
2022/05/07 12:05:52;;;;;;;9.05;8.15;;;;;;;;;;5009583;28;20056;-77
2022/05/07 12:08:22;;;;;;;9.73;8.60;;;;;;;;;;5002074;28;20046;-77
2022/05/07 12:10:55;;;;;;;8.13;7.30;;;;;;;;;;5037909;28;20100;-77
2022/05/07 12:13:24;;;;;;;8.23;7.43;;;;;;;;;;5006742;28;20045;-77
2022/05/07 12:18:38;;;;;;;9.05;8.15;;;;;;;;;;5038797;28;20046;-76
2022/05/07 12:21:04;;;;;;;9.43;7.68;;;;;;;;;;5002795;28;20046;-77
2022/05/07 12:31:53;;;;;;;9.70;8.65;;;;;;;;;;5042196;28;20089;-78
2022/05/07 12:34:19;;;;;;;9.73;8.18;;;;;;;;;;5003736;28;20042;-78
2022/05/07 12:36:45;;;;;;;9.10;7.22;;;;;;;;;;5005819;28;20038;-78
2022/05/07 12:39:11;;;;;;;9.20;7.65;;;;;;;;;;5004759;28;20050;-78
2022/05/07 12:41:41;;;;;;;11.13;7.75;;;;;;;;;;5001382;28;20065;-78
2022/05/07 12:44:07;;;;;;;9.35;7.50;;;;;;;;;;5008403;28;20128;-78
2022/05/07 12:46:33;;;;;;;10.57;8.27;;;;;;;;;;5000858;28;20050;-78
2022/05/07 12:48:59;;;;;;;9.30;8.30;;;;;;;;;;5007739;28;20053;-78
2022/05/07 12:51:25;;;;;;;10.13;9.00;;;;;;;;;;5035230;28;20929;-78
2022/05/07 12:53:55;;;;;;;14.00;11.40;;;;;;;;;;5039694;28;20575;-77
2022/05/07 12:56:24;;;;;;;12.18;10.90;;;;;;;;;;5004927;28;20192;-78
2022/05/07 12:58:50;;;;;;;13.05;10.65;;;;;;;;;;5002168;28;20478;-78
2022/05/07 13:01:16;;;;;;;13.13;10.43;;;;;;;;;;5001567;28;20034;-78
2022/05/07 13:03:46;;;;;;;10.95;8.85;;;;;;;;;;5003164;28;20042;-78
2022/05/07 13:06:12;;;;;;;8.65;7.75;;;;;;;;;;5003507;28;20054;-77
2022/05/07 13:08:38;;;;;;;8.57;7.57;;;;;;;;;;5004208;28;20074;-78
2022/05/07 13:11:04;;;;;;;7.68;6.60;;;;;;;;;;5005347;28;20605;-79
2022/05/07 13:13:30;;;;;;;8.13;6.47;;;;;;;;;;5003878;28;20119;-78
2022/05/07 13:15:59;;;;;;;6.40;5.50;;;;;;;;;;5040302;28;20124;-78
2022/05/07 13:18:26;;;;;;;5.40;4.90;;;;;;;;;;5000952;28;20235;-78
2022/05/07 13:20:52;;;;;;;5.47;4.50;;;;;;;;;;5008609;28;20075;-78
2022/05/07 13:23:19;;;;;;;4.53;4.13;;;;;;;;;;5001788;28;20045;-82
2022/05/07 13:25:45;;;;;;;5.03;3.72;;;;;;;;;;5009125;28;20116;-81
2022/05/07 13:28:11;;;;;;;4.07;3.60;;;;;;;;;;5007386;28;20596;-82
2022/05/07 13:30:41;;;;;;;3.58;3.05;;;;;;;;;;5039372;28;20076;-81
2022/05/07 13:33:08;;;;;;;3.40;3.05;;;;;;;;;;5002877;28;20048;-81
2022/05/07 13:35:34;;;;;;;3.13;2.70;;;;;;;;;;5008697;28;20038;-80
2022/05/07 13:38:03;;;;;;;2.95;2.75;;;;;;;;;;5005469;28;20052;-81
2022/05/07 13:40:29;;;;;;;2.50;2.30;;;;;;;;;;5008040;28;20056;-80
2022/05/07 13:42:55;;;;;;;1.92;1.83;;;;;;;;;;5003538;28;20049;-80
2022/05/07 13:45:24;;;;;;;1.70;1.58;;;;;;;;;;5009168;28;20100;-80
2022/05/07 13:47:50;;;;;;;1.60;1.50;;;;;;;;;;5004168;28;20038;-80
2022/05/07 13:50:19;;;;;;;2.00;1.90;;;;;;;;;;5005420;28;20500;-80
2022/05/07 13:52:45;;;;;;;1.50;1.40;;;;;;;;;;5039333;28;20490;-81
2022/05/07 13:55:13;;;;;;;2.08;1.60;;;;;;;;;;5006033;28;20142;-80
2022/05/07 13:57:39;;;;;;;2.85;1.55;;;;;;;;;;5006573;28;20054;-86
2022/05/07 14:00:06;;;;;;;1.92;1.40;;;;;;;;;;5038575;28;20578;-84
2022/05/07 14:02:36;;;;;;;1.25;1.25;;;;;;;;;;5004247;28;20060;-84
2022/05/07 14:05:03;;;;;;;1.80;1.70;;;;;;;;;;5038071;28;20045;-83
2022/05/07 14:07:30;;;;;;;2.08;1.88;;;;;;;;;;5004488;28;20046;-84
2022/05/07 14:09:57;;;;;;;2.28;1.80;;;;;;;;;;5000271;28;20125;-83
2022/05/07 14:12:23;;;;;;;3.92;2.42;;;;;;;;;;5036942;28;20049;-84
2022/05/07 14:14:52;;;;;;;3.10;2.90;;;;;;;;;;5009645;28;20045;-84
2022/05/07 14:17:20;;;;;;;5.15;3.90;;;;;;;;;;5006047;28;20044;-82
2022/05/07 14:19:47;;;;;;;4.65;4.25;;;;;;;;;;5004592;28;20045;-83
2022/05/07 14:22:13;;;;;;;4.60;4.20;;;;;;;;;;5008849;28;20054;-84
2022/05/07 14:24:39;;;;;;;5.78;4.40;;;;;;;;;;5005835;28;20386;-83
2022/05/07 14:27:05;;;;;;;5.57;4.50;;;;;;;;;;5002883;28;20129;-85
2022/05/07 14:29:32;;;;;;;4.30;4.00;;;;;;;;;;5009674;28;20054;-86
2022/05/07 14:31:59;;;;;;;3.90;3.60;;;;;;;;;;5017197;28;20049;-82
2022/05/07 14:34:25;;;;;;;3.45;3.15;;;;;;;;;;5012834;28;20046;-82
2022/05/07 14:36:51;;;;;;;2.63;2.53;;;;;;;;;;4992750;28;20054;-82
2022/05/07 14:39:17;;;;;;;2.58;2.38;;;;;;;;;;5001921;28;20418;-82
2022/05/07 14:41:43;;;;;;;3.03;2.83;;;;;;;;;;5007418;28;20045;-81
2022/05/07 14:44:10;;;;;;;2.97;2.78;;;;;;;;;;5007504;28;20596;-84
2022/05/07 14:46:36;;;;;;;3.63;3.33;;;;;;;;;;5004428;28;20046;-83
2022/05/07 14:49:03;;;;;;;4.18;3.78;;;;;;;;;;5012603;28;20049;-83
2022/05/07 14:51:30;;;;;;;3.88;3.58;;;;;;;;;;5012590;28;20049;-85
2022/05/07 14:53:59;;;;;;;3.90;3.50;;;;;;;;;;5019712;28;20077;-84
2022/05/07 14:56:25;;;;;;;5.60;4.15;;;;;;;;;;5017468;28;20405;-85
2022/05/07 14:58:51;;;;;;;4.47;4.18;;;;;;;;;;5023308;28;20042;-86
2022/05/07 15:01:17;;;;;;;6.68;5.97;;;;;;;;;;5016630;28;20417;-83
2022/05/07 15:03:43;;;;;;;6.55;5.72;;;;;;;;;;5016942;28;20132;-82